Time;durP1;ratioP1;P1;durP2;ratioP2;P2;SDS_P1;SDS_P2;PMS_P1;PMS_P2;Temp;Humidity;BMP_temperature;BMP_pressure;BME280_temperature;BME280_humidity;BME280_pressure;Samples;Min_cycle;Max_cycle;Signal;HPM_P1;HPM_P2
2022/07/30 00:16:56;;;;;;;15.45;8.13;;;;;;;21.18;100.00;100291.66;5385749;23;20085;-86
2022/07/30 00:20:23;;;;;;;11.07;7.72;;;;;;;21.21;100.00;100290.41;4906506;29;20034;-85
2022/07/30 00:23:49;;;;;;;10.27;7.38;;;;;;;21.17;100.00;100297.31;5355571;23;20619;-86
2022/07/30 00:34:52;;;;;;;9.48;7.07;;;;;;;20.95;100.00;100294.34;3500463;23;20315;-88
2022/07/30 00:37:55;;;;;;;12.65;10.02;;;;;;;20.92;100.00;100297.53;4956808;29;20059;-86
2022/07/30 00:44:00;;;;;;;17.23;12.10;;;;;;;20.99;100.00;100296.34;4994681;23;20032;-87
2022/07/30 01:16:19;;;;;;;20.73;12.93;;;;;;;21.05;100.00;100291.88;2667995;26;20050;-87
2022/07/30 02:17:22;;;;;;;17.73;14.20;;;;;;;20.75;100.00;100288.53;5148452;23;20039;-83
2022/07/30 02:26:04;;;;;;;21.17;14.65;;;;;;;20.75;100.00;100283.94;5114005;23;20039;-86
2022/07/30 02:39:58;;;;;;;27.70;19.20;;;;;;;20.61;100.00;100282.56;4237143;26;20037;-91
2022/07/30 04:24:58;;;;;;;41.65;29.02;;;;;;;20.73;100.00;100298.69;5343776;23;20046;-90
2022/07/30 04:42:47;;;;;;;36.17;21.98;;;;;;;21.02;100.00;100317.44;5384160;23;20062;-86
2022/07/30 04:45:32;;;;;;;39.67;22.50;;;;;;;20.88;100.00;100326.81;4994952;23;20046;-87
2022/07/30 04:57:08;;;;;;;26.48;19.80;;;;;;;20.64;100.00;100309.00;4960105;26;20047;-91
2022/07/30 05:03:19;;;;;;;27.63;20.30;;;;;;;20.64;100.00;100319.78;4975218;23;20047;-86
2022/07/30 05:06:40;;;;;;;30.90;20.58;;;;;;;20.68;100.00;100320.97;4960625;28;20043;-85
2022/07/30 05:12:38;;;;;;;31.67;19.95;;;;;;;20.71;100.00;100325.88;4950063;29;20107;-89
2022/07/30 05:15:31;;;;;;;33.40;21.50;;;;;;;20.69;100.00;100324.44;4961069;28;20031;-84
2022/07/30 06:42:37;;;;;;;12.60;6.70;;;;;;;26.98;100.00;100408.34;5202242;23;20066;-89
2022/07/30 06:46:19;;;;;;;12.32;6.68;;;;;;;28.49;98.37;100411.69;4980597;28;20063;-90
2022/07/30 06:50:06;;;;;;;13.40;6.15;;;;;;;29.08;93.38;100408.78;4892537;29;20052;-92
2022/07/30 06:53:30;;;;;;;10.32;5.28;;;;;;;28.39;95.57;100414.47;4880646;29;20063;-91
2022/07/30 07:00:05;;;;;;;10.23;5.93;;;;;;;27.94;95.48;100413.59;5319417;23;20031;-92
2022/07/30 07:14:19;;;;;;;12.15;7.00;;;;;;;28.81;93.08;100414.75;5301045;23;20039;-91
2022/07/30 07:20:05;;;;;;;9.30;6.97;;;;;;;29.34;87.53;100420.31;5018624;23;20059;-89
2022/07/30 07:28:43;;;;;;;14.93;7.90;;;;;;;28.55;94.32;100421.47;4993734;23;20051;-89
2022/07/30 07:31:22;;;;;;;9.30;7.75;;;;;;;28.29;93.11;100420.81;4973400;29;20046;-85
2022/07/30 07:36:38;;;;;;;13.33;8.17;;;;;;;28.42;94.80;100425.63;5290146;23;20120;-84
2022/07/30 07:39:22;;;;;;;12.23;7.63;;;;;;;28.42;93.23;100419.38;4966150;29;20051;-85
2022/07/30 07:42:18;;;;;;;8.68;6.45;;;;;;;28.69;92.32;100417.03;4979058;29;20053;-87
2022/07/30 07:50:35;;;;;;;10.48;7.50;;;;;;;29.33;87.65;100418.69;5090349;23;20055;-85
2022/07/30 07:53:17;;;;;;;16.27;8.50;;;;;;;29.59;86.20;100425.53;4976900;29;20043;-85
2022/07/30 07:55:56;;;;;;;12.93;7.90;;;;;;;29.68;84.76;100427.31;4954064;29;20055;-85
2022/07/30 07:58:21;;;;;;;12.70;6.53;;;;;;;30.12;84.98;100435.28;4938681;29;20098;-84
2022/07/30 08:00:47;;;;;;;14.63;8.07;;;;;;;29.88;85.38;100433.69;4927942;29;20043;-85
2022/07/30 08:03:13;;;;;;;17.42;8.38;;;;;;;29.69;86.18;100433.59;4929676;29;20027;-88
2022/07/30 08:05:39;;;;;;;11.13;6.50;;;;;;;30.57;82.08;100433.03;4922114;29;20527;-88
2022/07/30 08:08:17;;;;;;;12.75;8.40;;;;;;;29.86;85.36;100439.47;4937836;28;20054;-87
2022/07/30 08:11:05;;;;;;;10.35;7.68;;;;;;;29.79;86.80;100433.50;4927346;29;20047;-89
2022/07/30 08:13:50;;;;;;;14.30;8.65;;;;;;;29.71;86.50;100436.84;4921999;29;20484;-88
2022/07/30 08:16:42;;;;;;;13.30;8.57;;;;;;;29.67;86.66;100435.78;4921882;29;20040;-88
2022/07/30 08:19:11;;;;;;;13.90;8.20;;;;;;;29.61;87.87;100443.25;4922266;29;20321;-89
2022/07/30 08:21:43;;;;;;;11.63;8.43;;;;;;;29.56;85.03;100435.13;4918911;29;20068;-87
2022/07/30 08:24:09;;;;;;;10.63;7.95;;;;;;;29.48;86.01;100443.13;4937120;29;20047;-86
2022/07/30 08:26:37;;;;;;;9.63;8.25;;;;;;;29.88;84.98;100445.44;4979323;28;20035;-89
2022/07/30 08:29:03;;;;;;;12.48;7.22;;;;;;;30.19;83.92;100449.38;4949703;28;20764;-89
2022/07/30 08:31:28;;;;;;;13.18;7.60;;;;;;;30.30;83.72;100444.59;4953007;28;20042;-88
2022/07/30 08:33:54;;;;;;;9.95;6.90;;;;;;;30.17;82.12;100446.16;4949122;28;20402;-91
2022/07/30 08:36:22;;;;;;;8.95;5.97;;;;;;;30.81;80.35;100444.72;4963536;28;20066;-84
2022/07/30 08:38:48;;;;;;;11.57;6.10;;;;;;;31.21;76.74;100446.81;4969262;28;20042;-85
2022/07/30 08:41:18;;;;;;;7.68;5.57;;;;;;;30.89;77.97;100448.72;4966587;28;20110;-86
2022/07/30 08:43:46;;;;;;;10.10;6.47;;;;;;;31.20;77.06;100445.19;4969608;28;20394;-84
2022/07/30 08:46:14;;;;;;;9.90;6.38;;;;;;;31.84;75.48;100450.88;4934892;28;20133;-83
2022/07/30 08:48:54;;;;;;;8.70;5.32;;;;;;;31.91;73.60;100456.75;4936067;29;20130;-86
2022/07/30 08:51:22;;;;;;;12.10;6.15;;;;;;;31.23;76.42;100444.56;4921600;29;20130;-83
2022/07/30 08:54:08;;;;;;;8.00;6.03;;;;;;;31.43;75.40;100450.78;4935125;29;20055;-84
2022/07/30 08:56:34;;;;;;;10.65;6.07;;;;;;;31.61;76.11;100447.22;4918601;29;20131;-85
2022/07/30 08:59:01;;;;;;;8.77;6.22;;;;;;;31.30;76.70;100443.38;4932636;29;20142;-86
2022/07/30 09:01:26;;;;;;;15.05;9.98;;;;;;;31.68;73.14;100447.63;4954269;29;20070;-86
2022/07/30 09:03:55;;;;;;;9.77;7.55;;;;;;;31.20;76.18;100438.88;4936763;29;20119;-85
2022/07/30 09:06:20;;;;;;;11.07;6.85;;;;;;;31.43;76.43;100434.34;4937641;29;20473;-88
2022/07/30 09:08:46;;;;;;;12.20;7.53;;;;;;;31.76;72.76;100433.19;4937400;29;20397;-90
2022/07/30 09:11:12;;;;;;;8.68;6.57;;;;;;;32.34;71.19;100444.34;4938019;29;20382;-85
2022/07/30 09:13:47;;;;;;;9.60;6.30;;;;;;;32.49;70.66;100445.94;4937692;29;20071;-86
2022/07/30 09:16:25;;;;;;;10.23;6.90;;;;;;;32.36;68.37;100444.03;4937205;29;20035;-86
2022/07/30 09:18:54;;;;;;;9.48;6.95;;;;;;;32.97;68.27;100436.03;4939410;29;20035;-87
2022/07/30 09:21:23;;;;;;;17.25;12.43;;;;;;;32.70;68.54;100441.63;4956532;29;20046;-87
2022/07/30 09:24:09;;;;;;;20.42;13.25;;;;;;;31.78;71.77;100430.97;4937002;29;20516;-86
2022/07/30 09:27:04;;;;;;;19.45;6.32;;;;;;;31.38;70.48;100427.06;4919190;29;20051;-86
2022/07/30 09:29:57;;;;;;;8.32;5.30;;;;;;;31.55;68.52;100432.00;4954062;29;20043;-87
2022/07/30 09:32:54;;;;;;;8.95;5.60;;;;;;;31.80;69.66;100428.75;4954803;29;20138;-87
2022/07/30 09:35:44;;;;;;;11.02;6.70;;;;;;;31.78;69.46;100425.50;4960207;29;20061;-92
2022/07/30 09:38:10;;;;;;;7.97;6.40;;;;;;;31.74;69.12;100428.03;4947400;29;20071;-86
2022/07/30 09:41:05;;;;;;;6.47;5.13;;;;;;;31.73;67.90;100428.31;4891265;29;20045;-89
2022/07/30 09:43:50;;;;;;;6.35;3.80;;;;;;;32.36;65.44;100431.13;4927553;29;20062;-87
2022/07/30 09:46:46;;;;;;;6.20;4.57;;;;;;;32.56;64.89;100433.41;4943211;29;20496;-91
2022/07/30 09:49:40;;;;;;;7.80;4.60;;;;;;;32.40;63.29;100432.13;4952438;29;20062;-92
2022/07/30 09:52:06;;;;;;;7.22;4.80;;;;;;;31.60;67.76;100429.97;4934516;29;20066;-87
2022/07/30 09:54:48;;;;;;;5.60;4.22;;;;;;;31.62;68.04;100421.44;4955481;29;20114;-89
2022/07/30 09:57:15;;;;;;;4.35;3.13;;;;;;;31.47;65.88;100421.69;4942594;29;20055;-87
2022/07/30 09:59:41;;;;;;;8.20;3.78;;;;;;;31.91;57.01;100424.69;4935305;29;20031;-87
2022/07/30 10:02:08;;;;;;;8.98;3.65;;;;;;;31.62;55.74;100416.75;4942643;29;20476;-89
2022/07/30 10:05:10;;;;;;;6.15;4.10;;;;;;;31.52;57.58;100416.16;4958305;29;20046;-89
2022/07/30 10:07:36;;;;;;;9.25;4.18;;;;;;;31.25;59.79;100423.16;4941265;29;20106;-88
2022/07/30 10:10:03;;;;;;;7.22;5.30;;;;;;;31.14;61.02;100409.97;4945826;29;20136;-92
2022/07/30 10:12:31;;;;;;;7.90;4.60;;;;;;;30.79;61.97;100411.38;4947141;29;20042;-88
2022/07/30 10:15:00;;;;;;;8.93;4.82;;;;;;;30.94;60.88;100416.59;4940184;29;20033;-88
2022/07/30 10:17:30;;;;;;;7.68;5.18;;;;;;;31.38;60.03;100407.06;4926583;29;20047;-91
2022/07/30 10:20:16;;;;;;;10.15;4.93;;;;;;;31.58;59.69;100409.47;4950433;29;20051;-88
2022/07/30 10:23:01;;;;;;;7.80;5.50;;;;;;;31.67;60.17;100407.63;4956406;29;20122;-87
2022/07/30 10:25:36;;;;;;;8.27;5.50;;;;;;;31.85;58.58;100408.66;4950334;29;20081;-87
2022/07/30 10:28:22;;;;;;;10.60;6.20;;;;;;;32.08;58.70;100413.13;4943900;29;20050;-88
2022/07/30 10:30:52;;;;;;;9.98;5.43;;;;;;;32.49;57.53;100404.75;4958945;29;20096;-90
2022/07/30 10:33:24;;;;;;;6.60;5.18;;;;;;;33.06;55.63;100406.66;4955380;29;20031;-88
2022/07/30 10:35:50;;;;;;;;;;;;;;;32.96;56.43;100406.94;4943847;29;20039;-88
2022/07/30 10:38:19;;;;;;;8.45;4.68;;;;;;;32.85;56.35;100407.50;4961496;29;19969;-89
2022/07/30 10:41:16;;;;;;;7.00;5.63;;;;;;;33.37;54.29;100400.41;4960407;29;20144;-86
2022/07/30 10:43:59;;;;;;;9.85;5.80;;;;;;;33.12;55.45;100399.13;4914964;29;20047;-91
2022/07/30 10:50:25;;;;;;;6.15;5.20;;;;;;;33.79;49.96;100408.03;4978315;28;20074;-87
2022/07/30 10:52:55;;;;;;;7.43;5.35;;;;;;;34.02;50.51;100403.22;4964110;29;20030;-87
2022/07/30 10:55:43;;;;;;;8.18;6.07;;;;;;;33.97;52.38;100398.69;4979916;28;20047;-89
2022/07/30 10:58:14;;;;;;;6.63;4.78;;;;;;;34.10;50.61;100403.25;4979218;28;20031;-87
2022/07/30 11:00:51;;;;;;;8.30;5.28;;;;;;;34.09;50.62;100406.31;4978499;29;20031;-91
2022/07/30 11:03:22;;;;;;;11.63;6.13;;;;;;;34.22;50.22;100397.94;4976727;29;20035;-89
2022/07/30 11:09:38;;;;;;;7.38;4.30;;;;;;;34.32;49.12;100398.75;4968097;29;20575;-87
2022/07/30 11:12:05;;;;;;;8.63;5.05;;;;;;;34.38;47.72;100397.47;4956021;29;20051;-85
2022/07/30 11:18:09;;;;;;;9.55;4.88;;;;;;;33.88;48.91;100395.09;4948201;29;20497;-90
2022/07/30 11:20:41;;;;;;;6.15;4.38;;;;;;;33.84;48.93;100391.38;4940198;29;20048;-91
2022/07/30 11:23:28;;;;;;;6.63;4.25;;;;;;;33.93;47.00;100392.22;4944089;29;20063;-85
2022/07/30 11:29:44;;;;;;;7.30;3.50;;;;;;;33.75;46.17;100385.03;4962139;29;20122;-88
2022/07/30 11:32:23;;;;;;;3.58;3.05;;;;;;;34.02;42.88;100390.28;4960348;29;20039;-87
2022/07/30 11:34:50;;;;;;;3.83;3.30;;;;;;;34.32;42.79;100382.25;4960909;29;20107;-85
2022/07/30 11:37:25;;;;;;;3.72;3.08;;;;;;;34.35;43.61;100387.09;4950111;29;20042;-83
2022/07/30 11:39:53;;;;;;;4.18;3.58;;;;;;;33.95;44.45;100386.38;4964709;29;20047;-86
2022/07/30 11:42:33;;;;;;;5.47;3.63;;;;;;;33.28;46.43;100383.06;4958646;29;20036;-87
2022/07/30 11:45:19;;;;;;;6.85;3.50;;;;;;;32.72;47.64;100378.97;4940438;29;20082;-87
2022/07/30 11:47:50;;;;;;;6.25;3.08;;;;;;;32.53;46.14;100384.63;4941437;29;20035;-90
2022/07/30 11:50:34;;;;;;;3.90;2.80;;;;;;;32.37;47.06;100382.56;4961905;29;20386;-85
2022/07/30 11:53:03;;;;;;;5.55;3.25;;;;;;;32.08;46.28;100383.78;4957865;29;20035;-87
2022/07/30 11:55:31;;;;;;;8.63;3.58;;;;;;;31.99;48.11;100382.81;4959393;29;20150;-85
2022/07/30 11:57:58;;;;;;;7.05;3.78;;;;;;;31.82;48.21;100371.66;4958428;29;20031;-84
2022/07/30 12:00:25;;;;;;;6.03;3.40;;;;;;;31.68;49.37;100370.91;4928814;28;20495;-86
2022/07/30 12:02:50;;;;;;;5.88;3.20;;;;;;;31.42;49.89;100367.00;4956851;29;20126;-88
2022/07/30 12:05:26;;;;;;;3.58;3.20;;;;;;;31.20;48.02;100365.75;4955989;29;20099;-86
2022/07/30 12:07:58;;;;;;;6.85;3.30;;;;;;;31.36;49.59;100355.31;4940595;29;20035;-88
2022/07/30 12:10:26;;;;;;;3.95;3.10;;;;;;;31.48;47.20;100361.13;4943206;29;20039;-90
2022/07/30 12:12:52;;;;;;;3.60;2.90;;;;;;;31.24;47.71;100355.03;4940604;29;20038;-87
2022/07/30 12:15:35;;;;;;;5.10;3.17;;;;;;;31.19;49.06;100358.66;4958039;29;20035;-86
2022/07/30 12:18:00;;;;;;;6.30;4.43;;;;;;;30.92;49.42;100349.56;4942055;29;20497;-89
2022/07/30 12:20:27;;;;;;;5.30;4.72;;;;;;;30.85;51.02;100352.69;4958520;29;20098;-88
2022/07/30 12:22:53;;;;;;;4.50;2.95;;;;;;;30.74;50.17;100351.22;4963543;28;20034;-87
2022/07/30 12:25:19;;;;;;;4.88;3.38;;;;;;;30.67;48.56;100348.88;4966294;28;20034;-90
2022/07/30 12:27:46;;;;;;;3.63;2.35;;;;;;;30.52;48.43;100337.38;4963247;28;20035;-89
2022/07/30 12:30:13;;;;;;;2.58;2.13;;;;;;;30.50;46.51;100339.59;4963066;28;20035;-90
2022/07/30 12:32:38;;;;;;;3.63;2.53;;;;;;;30.24;47.16;100334.50;4939713;29;20130;-88
2022/07/30 12:35:05;;;;;;;6.97;2.30;;;;;;;30.32;48.94;100337.69;4956644;29;20181;-90
2022/07/30 12:37:30;;;;;;;8.32;2.80;;;;;;;30.27;48.31;100331.16;4941019;29;20043;-88
2022/07/30 12:40:09;;;;;;;3.75;2.67;;;;;;;30.12;49.17;100333.31;4958141;29;20054;-90
2022/07/30 12:42:36;;;;;;;3.75;2.55;;;;;;;30.15;47.87;100330.00;4957800;29;20043;-89
2022/07/30 12:45:02;;;;;;;4.35;2.30;;;;;;;30.33;49.17;100334.63;4939769;29;20039;-90
2022/07/30 12:47:29;;;;;;;6.47;2.80;;;;;;;30.41;46.85;100328.53;4957849;29;20520;-87
2022/07/30 12:49:58;;;;;;;6.95;4.20;;;;;;;30.19;46.64;100337.28;4939782;29;20039;-89
2022/07/30 12:52:32;;;;;;;3.20;2.40;;;;;;;30.46;45.77;100333.13;4922949;29;20113;-89
2022/07/30 12:55:06;;;;;;;5.43;2.13;;;;;;;30.48;45.03;100331.69;4924538;29;20047;-89
2022/07/30 12:57:52;;;;;;;7.55;2.83;;;;;;;30.67;45.72;100332.47;4945616;29;20039;-87
2022/07/30 13:00:18;;;;;;;3.30;2.45;;;;;;;30.64;47.69;100332.25;4941377;29;20039;-89
2022/07/30 13:02:44;;;;;;;4.05;2.40;;;;;;;30.88;45.83;100338.41;4962757;29;20591;-89
2022/07/30 13:05:10;;;;;;;3.95;2.03;;;;;;;30.75;44.78;100341.94;4957683;29;20065;-89
2022/07/30 13:07:55;;;;;;;4.68;2.38;;;;;;;30.67;45.85;100332.47;4924024;29;20126;-88
2022/07/30 13:10:21;;;;;;;6.82;2.33;;;;;;;30.76;45.13;100327.94;4925198;29;20066;-86
2022/07/30 13:12:46;;;;;;;7.82;2.58;;;;;;;30.94;45.84;100323.50;4964780;28;20070;-87
2022/07/30 13:15:20;;;;;;;2.78;2.25;;;;;;;30.99;43.88;100317.97;4947191;29;20058;-88
2022/07/30 13:17:46;;;;;;;7.95;4.63;;;;;;;30.99;43.68;100317.97;4947423;29;20063;-87
2022/07/30 13:20:15;;;;;;;3.30;2.83;;;;;;;30.96;44.82;100317.75;4964641;28;20046;-88
2022/07/30 13:22:42;;;;;;;3.58;2.75;;;;;;;30.81;44.26;100323.47;4947661;29;20104;-87
2022/07/30 13:25:08;;;;;;;2.45;2.25;;;;;;;30.72;44.09;100317.91;4964117;29;20035;-88
2022/07/30 13:27:34;;;;;;;4.68;2.03;;;;;;;30.82;43.09;100317.72;4946645;29;20043;-88
2022/07/30 13:30:02;;;;;;;8.98;2.00;;;;;;;30.68;43.71;100314.13;4963190;29;20043;-88
2022/07/30 13:32:27;;;;;;;2.92;1.90;;;;;;;30.75;44.21;100311.81;4946020;29;20037;-88
2022/07/30 13:34:53;;;;;;;4.35;2.17;;;;;;;30.85;42.17;100303.44;4963205;29;20537;-88
2022/07/30 13:37:19;;;;;;;2.95;2.00;;;;;;;30.93;43.67;100310.94;4945973;29;20481;-90
2022/07/30 13:39:44;;;;;;;2.40;2.20;;;;;;;31.06;43.91;100303.88;4945729;29;20123;-88
2022/07/30 13:42:10;;;;;;;5.90;2.50;;;;;;;30.91;42.09;100304.97;4963373;29;20074;-89
2022/07/30 13:44:38;;;;;;;3.22;2.40;;;;;;;30.99;42.82;100298.00;4952092;29;20062;-88
2022/07/30 13:47:06;;;;;;;4.40;2.20;;;;;;;30.96;43.21;100296.66;4973830;28;20039;-88
2022/07/30 13:49:35;;;;;;;4.88;1.92;;;;;;;31.11;43.74;100290.91;4983066;28;20023;-89
2022/07/30 13:52:00;;;;;;;7.38;2.25;;;;;;;31.07;41.17;100295.38;4967821;28;20040;-90
2022/07/30 13:54:28;;;;;;;3.58;2.70;;;;;;;30.92;44.92;100287.44;4982725;28;20059;-88
2022/07/30 13:56:53;;;;;;;5.63;2.90;;;;;;;30.67;46.28;100290.59;4945225;29;20043;-87
2022/07/30 13:59:19;;;;;;;2.72;2.42;;;;;;;30.61;47.10;100281.69;4946961;29;20085;-89
2022/07/30 14:01:44;;;;;;;4.03;3.08;;;;;;;30.63;46.83;100275.91;4962269;28;20066;-88
2022/07/30 14:04:10;;;;;;;4.50;2.95;;;;;;;30.64;47.29;100275.63;4944127;28;20488;-90
2022/07/30 14:06:35;;;;;;;6.20;3.60;;;;;;;30.82;47.13;100276.66;4961498;28;20031;-88
2022/07/30 14:09:02;;;;;;;4.53;3.60;;;;;;;30.90;47.44;100277.88;4945454;28;20120;-86
2022/07/30 14:11:27;;;;;;;7.40;3.53;;;;;;;30.86;47.18;100274.94;4961666;28;20058;-84
2022/07/30 14:13:53;;;;;;;4.55;3.08;;;;;;;30.93;48.02;100272.59;4961412;28;20480;-87
2022/07/30 14:16:18;;;;;;;5.65;3.10;;;;;;;30.94;47.25;100268.75;4961224;28;20043;-86
2022/07/30 14:18:44;;;;;;;4.55;3.10;;;;;;;30.89;46.45;100263.38;4961359;28;20035;-87
2022/07/30 14:21:10;;;;;;;9.27;3.35;;;;;;;30.85;46.85;100262.38;4962262;28;20504;-84
2022/07/30 14:23:35;;;;;;;5.68;2.75;;;;;;;30.90;46.31;100261.44;4961013;28;20476;-86
2022/07/30 14:26:01;;;;;;;4.38;2.53;;;;;;;30.92;46.21;100264.72;4940787;28;20489;-82
2022/07/30 14:28:26;;;;;;;3.20;2.63;;;;;;;30.84;46.26;100258.00;4957812;28;20035;-86
2022/07/30 14:30:52;;;;;;;4.15;2.80;;;;;;;30.81;46.74;100264.09;4940816;29;20469;-87
2022/07/30 14:33:18;;;;;;;12.15;9.80;;;;;;;30.73;45.71;100264.78;4940924;29;20035;-84
2022/07/30 14:35:43;;;;;;;11.90;8.07;;;;;;;30.69;45.76;100247.38;4943123;29;20527;-85
2022/07/30 14:38:09;;;;;;;6.20;4.00;;;;;;;30.70;45.67;100247.03;4964344;28;20035;-86
2022/07/30 14:40:35;;;;;;;4.57;2.20;;;;;;;30.63;45.63;100254.00;4976473;28;20062;-84
2022/07/30 14:43:00;;;;;;;2.65;2.15;;;;;;;30.65;44.50;100249.06;4991559;28;20041;-85
2022/07/30 14:45:26;;;;;;;6.20;2.38;;;;;;;30.71;45.26;100259.63;4959495;28;20026;-86
2022/07/30 14:47:51;;;;;;;8.68;2.00;;;;;;;30.53;43.96;100251.47;4977019;28;20042;-85
2022/07/30 14:50:17;;;;;;;3.78;2.75;;;;;;;30.42;44.35;100253.59;4959880;28;20508;-86
2022/07/30 14:52:43;;;;;;;3.80;2.15;;;;;;;30.19;43.43;100259.97;4958811;28;20050;-89
2022/07/30 14:55:12;;;;;;;3.85;2.50;;;;;;;30.30;44.87;100255.09;4976707;28;20034;-86
2022/07/30 14:57:38;;;;;;;2.55;1.80;;;;;;;30.23;43.26;100253.56;4977068;28;20062;-89
2022/07/30 15:00:07;;;;;;;4.07;2.63;;;;;;;30.39;43.93;100250.59;4977132;28;20167;-85
2022/07/30 15:02:33;;;;;;;2.55;1.67;;;;;;;30.41;44.75;100248.41;4976933;28;20058;-88
2022/07/30 15:04:59;;;;;;;3.83;2.30;;;;;;;30.58;44.76;100246.72;4977159;28;20042;-87
2022/07/30 15:07:25;;;;;;;3.65;2.63;;;;;;;30.69;44.13;100253.63;4977286;28;20030;-87
2022/07/30 15:09:51;;;;;;;2.28;1.70;;;;;;;30.58;42.98;100254.13;4951148;29;20042;-86
2022/07/30 15:12:16;;;;;;;2.55;1.75;;;;;;;30.50;42.82;100252.06;4941460;29;20031;-86
2022/07/30 15:14:44;;;;;;;3.35;1.77;;;;;;;30.65;41.99;100244.41;4958315;29;20031;-86
2022/07/30 15:17:10;;;;;;;5.43;1.50;;;;;;;30.77;41.44;100243.91;4925312;29;20389;-87
2022/07/30 15:19:35;;;;;;;3.25;1.90;;;;;;;30.93;43.45;100244.41;4941709;29;20042;-86
2022/07/30 15:22:01;;;;;;;6.30;1.85;;;;;;;30.87;42.40;100240.97;4958162;29;20037;-84
2022/07/30 15:24:27;;;;;;;4.05;1.80;;;;;;;30.72;41.46;100246.75;4940628;29;20640;-86
2022/07/30 15:26:54;;;;;;;3.97;2.00;;;;;;;30.57;41.37;100247.00;4948428;29;20038;-84
2022/07/30 15:29:20;;;;;;;1.98;1.55;;;;;;;30.63;41.77;100240.34;4950815;29;20047;-85
2022/07/30 15:31:45;;;;;;;3.03;2.60;;;;;;;30.84;42.64;100249.81;4966390;29;20071;-85
2022/07/30 15:34:11;;;;;;;4.13;2.25;;;;;;;30.75;42.85;100248.88;4963287;29;20062;-87
2022/07/30 15:36:40;;;;;;;3.28;2.25;;;;;;;30.82;43.47;100243.84;4959831;28;20123;-85
2022/07/30 15:39:06;;;;;;;7.63;4.35;;;;;;;30.88;42.98;100245.34;4943607;29;20035;-85
2022/07/30 15:41:36;;;;;;;6.88;4.20;;;;;;;30.77;42.85;100246.66;4969995;29;20038;-85
2022/07/30 15:44:02;;;;;;;3.28;1.83;;;;;;;30.73;42.17;100242.88;4971321;29;20035;-86
2022/07/30 15:46:27;;;;;;;8.88;5.10;;;;;;;30.89;43.63;100241.47;4961231;29;20058;-86
2022/07/30 15:48:54;;;;;;;8.77;5.13;;;;;;;30.99;42.99;100244.06;4957852;29;20481;-87
2022/07/30 15:51:20;;;;;;;4.10;2.80;;;;;;;30.95;41.34;100240.28;4957614;29;20035;-88
2022/07/30 15:53:45;;;;;;;8.07;1.80;;;;;;;30.82;41.02;100238.34;4957996;29;20098;-88
2022/07/30 15:56:11;;;;;;;2.65;1.73;;;;;;;30.76;40.88;100247.75;4957735;29;20039;-86
2022/07/30 15:58:36;;;;;;;6.15;2.72;;;;;;;30.68;41.31;100235.59;4940650;29;20454;-89
2022/07/30 16:01:04;;;;;;;7.07;3.40;;;;;;;30.88;42.12;100247.28;4957925;29;20117;-87
2022/07/30 16:03:29;;;;;;;6.60;1.67;;;;;;;30.77;38.36;100247.47;4957309;29;20035;-89
2022/07/30 16:05:55;;;;;;;4.00;2.63;;;;;;;30.81;39.67;100239.47;4940364;29;20042;-86
2022/07/30 16:08:21;;;;;;;2.80;1.70;;;;;;;30.79;38.92;100238.16;4957983;29;20039;-86
2022/07/30 16:10:47;;;;;;;1.92;1.63;;;;;;;30.80;39.39;100239.75;4957166;29;20114;-87
2022/07/30 16:13:13;;;;;;;5.45;2.13;;;;;;;30.59;40.52;100245.59;4942328;29;20455;-87
2022/07/30 16:15:38;;;;;;;2.67;2.10;;;;;;;30.64;38.72;100241.97;4958409;29;20127;-87
2022/07/30 16:18:05;;;;;;;2.50;1.70;;;;;;;30.56;38.62;100238.00;4939981;29;20090;-88
2022/07/30 16:20:31;;;;;;;2.97;1.50;;;;;;;30.71;40.35;100236.91;4939616;29;20485;-89
2022/07/30 16:22:57;;;;;;;1.80;1.45;;;;;;;30.68;39.35;100243.00;4924131;29;20397;-88
2022/07/30 16:25:22;;;;;;;1.98;1.40;;;;;;;30.77;39.82;100236.53;4956915;29;20039;-88
2022/07/30 16:27:48;;;;;;;2.90;1.73;;;;;;;30.89;40.58;100238.75;4923730;29;20424;-88
2022/07/30 16:30:14;;;;;;;2.63;1.65;;;;;;;30.94;40.34;100235.91;4957443;29;20035;-86
2022/07/30 16:32:40;;;;;;;3.70;1.48;;;;;;;30.93;40.51;100233.47;4956712;29;20446;-87
2022/07/30 16:35:06;;;;;;;4.57;1.60;;;;;;;30.98;39.75;100236.97;4956895;29;20032;-88
2022/07/30 16:37:34;;;;;;;1.90;1.40;;;;;;;30.92;39.97;100238.16;4939998;29;20386;-88
2022/07/30 16:40:00;;;;;;;2.22;1.58;;;;;;;30.92;39.64;100238.16;4939155;29;20051;-88
2022/07/30 16:42:25;;;;;;;3.05;1.50;;;;;;;30.91;39.11;100241.19;4939521;29;20114;-88
2022/07/30 16:44:51;;;;;;;1.83;1.33;;;;;;;30.97;39.03;100238.06;4939036;29;20117;-87
2022/07/30 16:47:16;;;;;;;3.22;1.60;;;;;;;30.88;37.81;100244.53;4938310;29;20043;-87
2022/07/30 16:49:42;;;;;;;3.42;1.42;;;;;;;30.91;38.04;100241.19;4955711;29;20046;-88
2022/07/30 16:52:07;;;;;;;2.88;1.58;;;;;;;30.97;37.99;100249.03;4956118;29;20042;-86
2022/07/30 16:54:36;;;;;;;2.78;1.63;;;;;;;30.92;39.06;100240.91;4938864;29;20038;-87
2022/07/30 16:57:02;;;;;;;2.38;1.60;;;;;;;30.92;38.85;100238.16;4956020;29;20105;-87
2022/07/30 16:59:28;;;;;;;1.52;1.13;;;;;;;30.88;38.60;100247.28;4938648;29;20039;-86
2022/07/30 17:01:53;;;;;;;2.83;1.60;;;;;;;30.92;39.58;100251.84;4956742;29;20038;-86
2022/07/30 17:04:19;;;;;;;3.53;2.05;;;;;;;30.77;39.10;100252.13;4957858;29;20112;-90
2022/07/30 17:06:44;;;;;;;3.63;2.95;;;;;;;30.80;39.25;100256.16;4956409;29;20408;-86
2022/07/30 17:09:10;;;;;;;5.55;2.50;;;;;;;30.82;39.70;100253.97;4922749;29;20397;-86
2022/07/30 17:11:35;;;;;;;2.78;1.88;;;;;;;30.85;39.93;100253.34;4955964;29;20118;-88
2022/07/30 17:14:01;;;;;;;3.33;1.90;;;;;;;30.84;40.36;100258.00;4956062;29;20389;-87
2022/07/30 17:16:27;;;;;;;3.88;1.40;;;;;;;30.90;40.56;100253.25;4938693;29;20127;-90
2022/07/30 17:18:52;;;;;;;2.58;1.48;;;;;;;30.82;41.90;100254.78;4938917;29;20071;-87
2022/07/30 17:21:18;;;;;;;3.45;1.67;;;;;;;30.81;39.64;100258.63;4957869;29;20039;-86
2022/07/30 17:23:43;;;;;;;3.70;2.58;;;;;;;30.81;38.20;100250.41;4959832;29;20057;-86
2022/07/30 17:26:09;;;;;;;3.63;1.90;;;;;;;30.85;39.95;100259.66;4938995;29;20130;-88
2022/07/30 17:28:36;;;;;;;2.40;1.75;;;;;;;30.79;40.58;100258.13;4955790;29;20031;-88
2022/07/30 17:31:02;;;;;;;6.78;4.63;;;;;;;30.83;41.15;100253.63;4938708;29;20051;-86
2022/07/30 17:33:28;;;;;;;2.10;1.45;;;;;;;30.68;41.81;100254.75;4923281;29;20042;-86
2022/07/30 17:35:53;;;;;;;2.13;1.58;;;;;;;30.72;41.53;100255.75;4955774;29;20562;-88
2022/07/30 17:38:19;;;;;;;2.13;1.45;;;;;;;30.73;40.56;100253.81;4956108;29;20118;-87
2022/07/30 17:40:44;;;;;;;12.55;6.55;;;;;;;30.73;42.05;100259.31;4958554;29;20031;-86
2022/07/30 17:43:12;;;;;;;6.90;3.92;;;;;;;30.76;41.88;100262.25;4962406;29;20042;-86
2022/07/30 17:45:38;;;;;;;2.60;1.85;;;;;;;30.76;41.38;100261.44;4960316;29;20098;-87
2022/07/30 17:48:04;;;;;;;15.05;11.68;;;;;;;30.75;41.15;100259.84;4939779;29;20075;-89
2022/07/30 17:50:31;;;;;;;6.75;4.38;;;;;;;30.69;41.07;100256.34;4956216;29;20039;-89
2022/07/30 17:52:56;;;;;;;4.80;3.08;;;;;;;30.66;41.55;100256.16;4956140;29;20035;-86
2022/07/30 17:55:22;;;;;;;3.20;1.73;;;;;;;30.44;42.04;100258.72;4938880;29;20389;-87
2022/07/30 17:57:47;;;;;;;2.25;1.50;;;;;;;30.37;41.16;100252.81;4958109;28;20031;-88
2022/07/30 18:00:13;;;;;;;3.47;1.42;;;;;;;30.10;42.24;100256.25;4967168;28;20046;-87
2022/07/30 18:02:39;;;;;;;2.55;1.80;;;;;;;30.21;41.99;100261.28;4949228;29;20452;-87
2022/07/30 18:05:05;;;;;;;2.33;1.48;;;;;;;30.09;42.51;100252.72;4981883;28;20035;-85
2022/07/30 18:07:30;;;;;;;4.18;1.80;;;;;;;30.00;43.80;100251.75;4965212;28;20091;-86
2022/07/30 18:09:56;;;;;;;5.00;1.88;;;;;;;29.90;44.97;100260.09;4980344;29;20031;-86
2022/07/30 18:12:21;;;;;;;2.97;1.90;;;;;;;29.70;45.59;100261.19;4959626;29;20111;-86
2022/07/30 18:14:47;;;;;;;3.40;2.00;;;;;;;29.63;46.54;100259.94;4959732;29;20396;-86
2022/07/30 18:17:12;;;;;;;5.00;2.20;;;;;;;29.60;46.71;100260.50;4942306;29;20446;-86
2022/07/30 18:19:38;;;;;;;5.63;2.47;;;;;;;29.46;47.36;100265.09;4958618;29;20059;-87
2022/07/30 18:22:03;;;;;;;4.45;2.10;;;;;;;29.51;47.12;100262.28;4959317;29;20531;-88